createdAt,value
2023-01-25T00:00:13.551Z,30.97
2023-01-25T00:05:16.480Z,25.43
2023-01-25T00:10:19.977Z,28.33
2023-01-25T00:15:24.570Z,26.40
2023-01-25T00:20:27.832Z,24.60
2023-01-25T00:25:30.657Z,28.90
2023-01-25T00:30:34.874Z,33.40
2023-01-25T00:35:37.644Z,27.10
2023-01-25T00:40:40.419Z,29.17
2023-01-25T00:45:44.604Z,30.70
2023-01-25T00:50:47.498Z,26.50
2023-01-25T00:55:53.214Z,23.27
2023-01-25T01:00:57.852Z,30.87
2023-01-25T01:06:02.357Z,25.53
2023-01-25T01:11:07.126Z,29.77
2023-01-25T01:16:13.759Z,19.43
2023-01-25T01:21:16.644Z,24.90
2023-01-25T01:26:20.472Z,24.00
2023-01-25T01:31:25.270Z,28.07
2023-01-25T01:36:40.886Z,27.83
2023-01-25T01:41:43.809Z,27.77
2023-01-25T01:46:54.334Z,27.37
2023-01-25T01:52:02.091Z,25.83
2023-01-25T01:57:11.476Z,25.07
2023-01-25T02:02:16.095Z,25.50
2023-01-25T02:07:22.682Z,32.57
2023-01-25T02:12:26.567Z,32.50
2023-01-25T02:17:32.496Z,25.30
2023-01-25T02:22:40.878Z,26.17
2023-01-25T02:27:47.468Z,30.37
2023-01-25T02:32:50.456Z,28.73
2023-01-25T02:37:53.420Z,33.17
2023-01-25T02:42:57.692Z,28.87
2023-01-25T02:48:00.721Z,23.00
2023-01-25T02:53:03.602Z,31.10
2023-01-25T02:58:11.982Z,33.63
2023-01-25T03:03:15.858Z,31.00
2023-01-25T03:08:18.821Z,26.70
2023-01-25T03:13:26.088Z,31.40
2023-01-25T03:18:29.192Z,26.57
2023-01-25T03:23:32.194Z,28.90
2023-01-25T03:28:37.008Z,34.00
2023-01-25T03:33:40.448Z,29.17
2023-01-25T03:38:44.027Z,28.27
2023-01-25T03:43:49.149Z,34.00
2023-01-25T03:48:53.973Z,36.93
2023-01-25T03:53:56.867Z,35.80
2023-01-25T03:59:01.725Z,37.47
2023-01-25T04:04:04.691Z,32.70
2023-01-25T04:09:09.537Z,39.40
2023-01-25T04:14:25.523Z,33.90
2023-01-25T04:19:38.560Z,38.33
2023-01-25T04:24:48.267Z,33.27
2023-01-25T04:29:52.560Z,35.57
2023-01-25T04:34:56.965Z,41.80
2023-01-25T04:40:04.174Z,38.23
2023-01-25T04:45:13.630Z,40.00
2023-01-25T04:50:17.532Z,43.30
2023-01-25T04:55:21.601Z,41.60
2023-01-25T05:00:29.085Z,43.13
2023-01-25T05:05:35.529Z,37.43
2023-01-25T05:10:42.688Z,37.60
2023-01-25T05:16:13.630Z,40.17
2023-01-25T05:21:30.549Z,45.80
2023-01-25T05:26:51.320Z,35.73
2023-01-25T05:31:56.041Z,44.33
2023-01-25T05:36:58.969Z,39.93
2023-01-25T05:42:02.417Z,40.70
2023-01-25T05:47:06.764Z,38.07
2023-01-25T05:52:13.466Z,36.37
2023-01-25T05:57:17.207Z,33.80
2023-01-25T06:02:22.310Z,34.13
2023-01-25T06:07:25.377Z,38.37
2023-01-25T06:12:29.475Z,46.57
2023-01-25T06:17:35.396Z,36.33
2023-01-25T06:22:44.251Z,29.43
2023-01-25T06:27:47.223Z,34.17
2023-01-25T06:32:51.426Z,46.60
2023-01-25T06:37:56.423Z,35.53
2023-01-25T06:43:07.215Z,44.80
2023-01-25T06:48:12.871Z,36.27
2023-01-25T06:53:16.520Z,47.47
2023-01-25T06:58:19.424Z,34.80
2023-01-25T07:03:23.672Z,45.13
2023-01-25T07:08:26.592Z,50.17
2023-01-25T07:13:31.071Z,37.23
2023-01-25T07:18:37.510Z,42.43
2023-01-25T07:23:41.585Z,38.00
2023-01-25T07:28:44.523Z,53.80
2023-01-25T07:33:50.475Z,37.77
2023-01-25T07:38:54.681Z,35.57
2023-01-25T07:43:57.715Z,36.63
2023-01-25T07:49:14.777Z,43.00
2023-01-25T07:54:17.649Z,40.60
2023-01-25T07:59:22.490Z,35.93
2023-01-25T08:04:26.812Z,36.80
2023-01-25T08:09:29.813Z,39.73
2023-01-25T08:14:32.861Z,38.30
2023-01-25T08:19:37.082Z,37.03
2023-01-25T08:24:40.108Z,30.13
2023-01-25T08:29:43.076Z,41.27
2023-01-25T08:34:47.290Z,34.83
2023-01-25T08:39:50.300Z,29.00
2023-01-25T08:44:53.190Z,36.53
2023-01-25T08:49:57.354Z,34.30
2023-01-25T08:55:00.875Z,34.57
2023-01-25T09:00:04.332Z,32.10
2023-01-25T09:05:09.633Z,35.90
2023-01-25T09:10:12.720Z,38.13
2023-01-25T09:15:15.740Z,34.30
2023-01-25T09:20:20.274Z,33.93
2023-01-25T09:25:23.391Z,32.90
2023-01-25T09:30:37.278Z,40.30
2023-01-25T09:35:50.176Z,33.83
2023-01-25T09:41:02.692Z,38.30
2023-01-25T09:46:13.816Z,35.03
2023-01-25T09:51:56.164Z,37.37
2023-01-25T09:56:59.804Z,34.90
2023-01-25T10:02:04.733Z,29.00
2023-01-25T10:07:20.338Z,34.27
2023-01-25T10:12:24.697Z,44.17
2023-01-25T10:17:33.152Z,36.27
2023-01-25T10:22:44.039Z,36.87
2023-01-25T10:27:55.543Z,33.43
2023-01-25T10:33:01.421Z,41.13
2023-01-25T10:38:11.108Z,40.00
2023-01-25T10:43:18.304Z,32.60
2023-01-25T10:48:26.713Z,34.23
2023-01-25T10:53:34.785Z,37.07
2023-01-25T10:58:39.461Z,37.43
2023-01-25T11:03:44.743Z,40.47
2023-01-25T11:08:50.512Z,42.60
2023-01-25T11:13:55.546Z,40.93
2023-01-25T11:18:59.389Z,37.93
2023-01-25T11:24:06.432Z,35.30
2023-01-25T11:29:14.479Z,41.20
2023-01-25T11:34:19.397Z,36.93
2023-01-25T11:39:35.484Z,38.23
2023-01-25T11:45:02.654Z,45.57
2023-01-25T11:50:09.666Z,35.20
2023-01-25T11:55:23.945Z,30.87
2023-01-25T12:00:53.244Z,37.70
2023-01-25T12:06:01.558Z,32.67
2023-01-25T12:11:09.554Z,39.87
2023-01-25T12:16:33.527Z,35.90
2023-01-25T12:21:50.611Z,32.73
2023-01-25T12:27:02.080Z,38.90
2023-01-25T12:32:08.689Z,41.10
2023-01-25T12:37:15.956Z,36.60
2023-01-25T12:42:22.649Z,40.53
2023-01-25T12:47:29.805Z,41.57
2023-01-25T12:52:35.173Z,45.97
2023-01-25T12:57:45.248Z,41.03
2023-01-25T13:03:01.788Z,41.67
2023-01-25T13:08:23.070Z,40.80
2023-01-25T13:13:30.922Z,40.10
2023-01-25T13:18:40.525Z,40.43
2023-01-25T13:23:47.204Z,49.80
2023-01-25T13:28:52.738Z,39.23
2023-01-25T13:33:55.625Z,41.90
2023-01-25T13:38:58.480Z,41.80
2023-01-25T13:44:31.877Z,41.27
2023-01-25T13:49:40.928Z,41.57
2023-01-25T13:54:45.042Z,40.27
2023-01-25T13:59:52.273Z,45.90
2023-01-25T14:04:55.721Z,43.30
2023-01-25T14:09:59.607Z,38.40
2023-01-25T14:15:18.730Z,46.77
2023-01-25T14:20:23.138Z,42.40
2023-01-25T14:25:27.060Z,43.30
2023-01-25T14:30:33.595Z,38.13
2023-01-25T14:35:43.261Z,40.47
2023-01-25T14:40:55.715Z,40.57
2023-01-25T14:45:59.968Z,46.60
2023-01-25T14:51:17.213Z,49.07
2023-01-25T14:56:29.121Z,40.47
2023-01-25T15:01:38.040Z,48.60
2023-01-25T15:06:48.575Z,40.90
2023-01-25T15:12:02.351Z,42.70
2023-01-25T15:17:06.511Z,47.03
2023-01-25T15:22:09.622Z,38.40
2023-01-25T15:27:12.953Z,36.00
2023-01-25T15:32:20.740Z,38.90
2023-01-25T15:37:23.575Z,27.23
2023-01-25T15:42:28.889Z,48.13
2023-01-25T15:47:33.326Z,45.17
2023-01-25T15:52:36.119Z,32.83
2023-01-25T15:57:38.978Z,41.33
2023-01-25T16:02:43.318Z,48.07
2023-01-25T16:07:46.971Z,47.47
2023-01-25T16:12:50.063Z,40.57
2023-01-25T16:17:54.322Z,38.17
2023-01-25T16:22:57.216Z,47.33
2023-01-25T16:28:00.081Z,40.43
2023-01-25T16:33:04.404Z,44.73
2023-01-25T16:38:07.392Z,40.13
2023-01-25T16:43:10.260Z,44.20
2023-01-25T16:48:16.374Z,40.77
2023-01-25T16:53:19.476Z,37.40
2023-01-25T16:58:22.292Z,48.87
2023-01-25T17:03:26.528Z,37.77
2023-01-25T17:08:29.409Z,62.47
2023-01-25T17:13:32.305Z,36.20
2023-01-25T17:18:36.534Z,48.97
2023-01-25T17:23:39.581Z,40.53
2023-01-25T17:28:42.798Z,44.53
2023-01-25T17:33:47.604Z,46.33
2023-01-25T17:38:50.571Z,36.23
2023-01-25T17:43:53.808Z,42.43
2023-01-25T17:48:58.659Z,47.30
2023-01-25T17:54:02.077Z,46.30
2023-01-25T17:59:08.709Z,44.60
2023-01-25T18:04:17.407Z,42.27
2023-01-25T18:09:20.515Z,45.53
2023-01-25T18:14:23.334Z,45.67
2023-01-25T18:19:31.145Z,44.43
2023-01-25T18:24:35.146Z,47.63
2023-01-25T18:29:56.653Z,47.53
2023-01-25T18:35:01.000Z,40.40
2023-01-25T18:40:03.815Z,41.90
2023-01-25T18:45:09.249Z,47.30
2023-01-25T18:50:16.293Z,54.00
2023-01-25T18:55:19.328Z,50.60
2023-01-25T19:00:22.249Z,44.10
2023-01-25T19:05:26.967Z,46.07
2023-01-25T19:10:29.759Z,43.63
2023-01-25T19:15:34.485Z,54.47
2023-01-25T19:20:38.740Z,46.17
2023-01-25T19:25:41.575Z,47.47
2023-01-25T19:30:44.582Z,55.43
2023-01-25T19:35:48.836Z,51.13
2023-01-25T19:40:51.684Z,56.43
2023-01-25T19:45:54.488Z,46.20
2023-01-25T19:51:08.088Z,58.43
2023-01-25T19:56:11.010Z,47.73
2023-01-25T20:01:16.242Z,56.57
2023-01-25T20:06:21.466Z,54.03
2023-01-25T20:11:25.563Z,59.80
2023-01-25T20:16:30.475Z,59.50
2023-01-25T20:21:38.053Z,56.37
2023-01-25T20:26:43.096Z,58.07
2023-01-25T20:31:47.117Z,62.03
2023-01-25T20:36:51.974Z,56.50
2023-01-25T20:41:56.674Z,55.43
2023-01-25T20:46:59.699Z,54.13
2023-01-25T20:52:05.165Z,62.90
2023-01-25T20:57:08.095Z,61.37
2023-01-25T21:02:11.623Z,77.40
2023-01-25T21:07:15.853Z,65.17
2023-01-25T21:12:18.716Z,77.90
2023-01-25T21:17:21.532Z,79.23
2023-01-25T21:22:25.850Z,61.57
2023-01-25T21:27:29.610Z,58.47
2023-01-25T21:32:32.425Z,60.57
2023-01-25T21:37:36.558Z,65.73
2023-01-25T21:42:39.353Z,62.53
2023-01-25T21:47:42.172Z,65.67
2023-01-25T21:52:46.449Z,64.53
2023-01-25T21:57:51.680Z,51.27
2023-01-25T22:02:56.411Z,56.17
2023-01-25T22:08:00.878Z,51.00
2023-01-25T22:13:03.763Z,46.23
2023-01-25T22:18:06.693Z,48.67
2023-01-25T22:23:10.931Z,42.47
2023-01-25T22:28:15.204Z,40.63
2023-01-25T22:33:18.563Z,46.67
2023-01-25T22:38:22.756Z,33.30
2023-01-25T22:43:25.618Z,40.20
2023-01-25T22:48:28.911Z,37.90
2023-01-25T22:53:33.588Z,43.73
2023-01-25T22:58:37.238Z,31.87
2023-01-25T23:03:40.094Z,44.03
2023-01-25T23:08:44.558Z,38.17
2023-01-25T23:14:07.690Z,29.93
2023-01-25T23:19:10.627Z,35.40
2023-01-25T23:24:14.855Z,36.10
2023-01-25T23:29:17.692Z,32.07
2023-01-25T23:34:20.474Z,33.63
2023-01-25T23:39:24.701Z,33.40
2023-01-25T23:44:27.946Z,32.00
2023-01-25T23:49:30.846Z,29.70
2023-01-25T23:54:35.108Z,39.63
2023-01-25T23:59:37.974Z,35.73
